Time;durP1;ratioP1;P1;durP2;ratioP2;P2;SDS_P1;SDS_P2;PMS_P1;PMS_P2;Temp;Humidity;BMP_temperature;BMP_pressure;BME280_temperature;BME280_humidity;BME280_pressure;Samples;Min_cycle;Max_cycle;Signal;HPM_P1;HPM_P2
2022/07/28 00:00:06;;;;;;;2.00;1.08;;;14.90;72.80;;;;;;4941459;28;20720;-67
2022/07/28 00:02:32;;;;;;;0.90;0.65;;;14.80;73.20;;;;;;4943136;29;20869;-67
2022/07/28 00:04:57;;;;;;;3.05;1.15;;;14.80;73.70;;;;;;4942179;29;20085;-67
2022/07/28 00:07:23;;;;;;;5.50;1.30;;;14.80;74.10;;;;;;4940058;29;20032;-68
2022/07/28 00:09:49;;;;;;;1.48;0.88;;;14.70;74.50;;;;;;4940222;29;20035;-67
2022/07/28 00:12:15;;;;;;;1.17;0.88;;;14.70;75.00;;;;;;4936532;29;20556;-67
2022/07/28 00:14:41;;;;;;;3.35;0.85;;;14.60;74.60;;;;;;4937655;28;20098;-67
2022/07/28 00:17:07;;;;;;;1.58;0.98;;;14.60;74.40;;;;;;4933859;29;20044;-67
2022/07/28 00:19:33;;;;;;;2.85;1.10;;;14.60;74.40;;;;;;4942923;29;20035;-67
2022/07/28 00:21:59;;;;;;;2.50;1.15;;;14.60;74.20;;;;;;4942501;28;20027;-67
2022/07/28 00:24:24;;;;;;;3.70;1.00;;;14.50;74.10;;;;;;4940654;29;20436;-67
2022/07/28 00:26:50;;;;;;;5.75;1.38;;;14.50;74.30;;;;;;4942606;29;20027;-67
2022/07/28 00:29:16;;;;;;;1.45;0.80;;;14.40;74.40;;;;;;4940911;29;20039;-67
2022/07/28 00:31:42;;;;;;;2.35;0.90;;;14.40;74.50;;;;;;4941012;28;20070;-68
2022/07/28 00:34:08;;;;;;;3.25;1.00;;;14.30;74.70;;;;;;4937604;29;20035;-67
2022/07/28 00:36:33;;;;;;;1.67;0.90;;;14.30;75.10;;;;;;4932619;29;20066;-67
2022/07/28 00:38:59;;;;;;;2.42;0.90;;;14.20;75.50;;;;;;4939585;29;20054;-67
2022/07/28 00:41:25;;;;;;;2.15;1.08;;;14.20;75.60;;;;;;4941141;28;20031;-67
2022/07/28 00:43:51;;;;;;;1.73;1.05;;;14.20;75.80;;;;;;4941423;28;20027;-67
2022/07/28 00:46:19;;;;;;;4.43;0.90;;;14.10;75.90;;;;;;4938050;28;20042;-67
2022/07/28 00:48:47;;;;;;;2.05;1.10;;;14.10;76.00;;;;;;4938052;29;20031;-67
2022/07/28 00:51:13;;;;;;;1.75;1.00;;;14.00;75.90;;;;;;4935494;29;20071;-67
2022/07/28 00:53:40;;;;;;;1.38;0.77;;;14.00;76.30;;;;;;4936492;29;20077;-67
2022/07/28 00:56:06;;;;;;;4.70;1.15;;;13.90;76.50;;;;;;4936314;29;20038;-67
2022/07/28 00:58:32;;;;;;;3.63;1.30;;;13.90;76.70;;;;;;4942866;28;20074;-67
2022/07/28 01:00:58;;;;;;;2.78;1.35;;;13.80;76.70;;;;;;4941583;29;20437;-67
2022/07/28 01:03:25;;;;;;;1.30;1.13;;;13.80;76.90;;;;;;4937375;28;20118;-67
2022/07/28 01:06:12;;;;;;;3.75;1.10;;;13.80;77.00;;;;;;4940854;28;20034;-67
2022/07/28 01:09:02;;;;;;;1.02;0.85;;;13.70;77.40;;;;;;4936503;29;20035;-67
2022/07/28 01:11:55;;;;;;;4.40;1.30;;;13.60;77.90;;;;;;4917981;29;20043;-67
2022/07/28 01:14:37;;;;;;;1.70;0.88;;;13.70;78.80;;;;;;4934773;29;20059;-67
2022/07/28 01:17:18;;;;;;;2.10;1.05;;;13.60;79.10;;;;;;4939896;29;20043;-67
2022/07/28 01:20:02;;;;;;;3.72;1.20;;;13.60;79.40;;;;;;4937806;29;20034;-67
2022/07/28 01:22:33;;;;;;;1.23;0.73;;;13.60;79.60;;;;;;4939533;29;20058;-67
2022/07/28 01:25:11;;;;;;;4.90;1.98;;;13.60;79.60;;;;;;4937770;29;20035;-67
2022/07/28 01:27:55;;;;;;;1.05;0.95;;;13.60;78.80;;;;;;4937584;29;20042;-67
2022/07/28 01:30:39;;;;;;;5.10;1.23;;;13.60;77.80;;;;;;4938874;28;20039;-67
2022/07/28 01:33:24;;;;;;;3.22;0.80;;;13.60;78.40;;;;;;4932234;29;20036;-67
2022/07/28 01:36:20;;;;;;;3.88;1.35;;;13.60;79.00;;;;;;4942325;28;20118;-67
2022/07/28 01:38:47;;;;;;;1.95;0.88;;;13.60;79.50;;;;;;4941321;28;20492;-67
2022/07/28 01:41:23;;;;;;;3.08;1.13;;;13.50;79.80;;;;;;4938490;28;20683;-67
2022/07/28 01:44:03;;;;;;;3.88;1.42;;;13.50;80.00;;;;;;4933281;29;20031;-67
2022/07/28 01:46:30;;;;;;;3.08;1.27;;;13.50;80.20;;;;;;4937890;28;20062;-67
2022/07/28 01:48:58;;;;;;;2.47;0.88;;;13.50;80.10;;;;;;4935356;28;20412;-67
2022/07/28 01:51:28;;;;;;;3.15;1.33;;;13.50;79.90;;;;;;4937291;29;20045;-68
2022/07/28 01:53:58;;;;;;;2.38;0.93;;;13.50;79.70;;;;;;4941641;29;20049;-67
2022/07/28 01:56:25;;;;;;;2.92;0.95;;;13.50;79.60;;;;;;4941997;29;20063;-67
2022/07/28 01:58:54;;;;;;;2.45;1.33;;;13.40;79.60;;;;;;4941878;29;20039;-67
2022/07/28 02:01:22;;;;;;;2.60;1.20;;;13.40;79.70;;;;;;4937377;29;20032;-67
2022/07/28 02:03:50;;;;;;;3.50;1.30;;;13.40;79.80;;;;;;4938299;29;20038;-67
2022/07/28 02:06:18;;;;;;;1.98;1.30;;;13.40;80.20;;;;;;4935113;29;20403;-67
2022/07/28 02:08:46;;;;;;;1.67;0.95;;;13.40;80.60;;;;;;4935341;28;20095;-67
2022/07/28 02:13:57;;;;;;;2.45;1.25;;;13.40;81.00;;;;;;4941891;29;20035;-67
2022/07/28 02:16:27;;;;;;;2.35;1.10;;;13.40;81.00;;;;;;4939502;28;20071;-67
2022/07/28 02:18:55;;;;;;;1.95;1.10;;;13.40;80.90;;;;;;4939437;28;20035;-67
2022/07/28 02:21:24;;;;;;;1.90;0.90;;;13.40;80.70;;;;;;4940443;29;20141;-67
2022/07/28 02:23:51;;;;;;;4.70;1.48;;;13.30;80.60;;;;;;4940393;28;20107;-67
2022/07/28 02:26:20;;;;;;;4.68;1.30;;;13.30;81.00;;;;;;4937793;29;20825;-67
2022/07/28 02:28:51;;;;;;;4.97;1.75;;;13.30;81.00;;;;;;4937574;28;20804;-67
2022/07/28 02:31:28;;;;;;;2.58;1.25;;;13.30;81.20;;;;;;4943398;28;20717;-67
2022/07/28 02:33:58;;;;;;;2.05;1.17;;;13.20;81.40;;;;;;4944769;28;20046;-67
2022/07/28 02:36:29;;;;;;;3.45;1.10;;;13.20;81.70;;;;;;4942522;29;20111;-67
2022/07/28 02:39:01;;;;;;;3.30;1.13;;;13.20;81.80;;;;;;4942514;28;20390;-67
2022/07/28 02:41:30;;;;;;;5.38;1.20;;;13.20;80.50;;;;;;4943270;28;20027;-68
2022/07/28 02:44:00;;;;;;;1.83;1.33;;;13.10;78.60;;;;;;4939038;28;20436;-67
2022/07/28 02:46:31;;;;;;;1.60;0.93;;;13.00;77.20;;;;;;4939144;29;20486;-67
2022/07/28 02:49:13;;;;;;;6.07;1.00;;;13.00;78.00;;;;;;4935886;29;20036;-67
2022/07/28 02:51:41;;;;;;;3.70;1.10;;;12.90;78.80;;;;;;4944840;28;20034;-67
2022/07/28 02:54:07;;;;;;;2.88;1.17;;;12.80;79.30;;;;;;4943295;28;20468;-66
2022/07/28 02:56:34;;;;;;;2.60;1.10;;;12.80;79.70;;;;;;4942869;28;20039;-67
2022/07/28 02:59:01;;;;;;;1.67;1.20;;;12.70;79.20;;;;;;4940223;28;20190;-67
2022/07/28 03:01:27;;;;;;;3.25;0.95;;;12.70;78.50;;;;;;4939855;29;20842;-67
2022/07/28 03:03:53;;;;;;;4.85;1.38;;;12.60;79.70;;;;;;4938271;28;20147;-67
2022/07/28 03:06:21;;;;;;;1.58;1.00;;;12.60;80.20;;;;;;4937207;29;20083;-67
2022/07/28 03:08:49;;;;;;;2.13;1.10;;;12.60;80.10;;;;;;4943100;28;20712;-67
2022/07/28 03:11:15;;;;;;;2.83;1.27;;;12.50;80.60;;;;;;4943660;28;20470;-67
2022/07/28 03:13:41;;;;;;;4.05;1.35;;;12.50;81.30;;;;;;4943270;28;20031;-67
2022/07/28 03:16:07;;;;;;;6.63;1.30;;;12.50;82.30;;;;;;4941064;28;20777;-67
2022/07/28 03:18:33;;;;;;;4.82;1.38;;;12.50;83.40;;;;;;4941361;28;20035;-67
2022/07/28 03:20:58;;;;;;;2.17;1.38;;;12.50;84.20;;;;;;4938512;29;20598;-67
2022/07/28 03:23:42;;;;;;;3.92;1.35;;;12.50;84.70;;;;;;4938247;29;20500;-67
2022/07/28 03:26:29;;;;;;;3.10;1.52;;;12.60;85.10;;;;;;4935164;29;20035;-67
2022/07/28 03:28:58;;;;;;;1.92;1.02;;;12.60;86.00;;;;;;4959315;28;20031;-67
2022/07/28 03:31:26;;;;;;;2.45;1.08;;;12.60;85.40;;;;;;4943481;28;20059;-67
2022/07/28 03:33:52;;;;;;;1.58;1.10;;;12.70;85.60;;;;;;4940177;29;20035;-67
2022/07/28 03:36:23;;;;;;;5.50;1.67;;;12.70;85.20;;;;;;4939800;29;20032;-67
2022/07/28 03:39:02;;;;;;;2.35;1.40;;;12.70;82.70;;;;;;4939284;29;20035;-67
2022/07/28 03:41:30;;;;;;;2.00;1.15;;;12.60;80.90;;;;;;4939115;29;20053;-67
2022/07/28 03:43:57;;;;;;;2.90;1.15;;;12.60;80.20;;;;;;4935843;29;20043;-67
2022/07/28 03:46:24;;;;;;;2.33;1.08;;;12.50;80.50;;;;;;4944033;29;20035;-67
2022/07/28 03:48:50;;;;;;;1.92;1.08;;;12.50;80.50;;;;;;4944162;28;20479;-67
2022/07/28 03:51:15;;;;;;;3.88;1.00;;;12.40;80.50;;;;;;4941696;29;20126;-67
2022/07/28 03:53:42;;;;;;;2.83;1.25;;;12.40;80.70;;;;;;4941947;29;20062;-67
2022/07/28 03:56:08;;;;;;;1.65;0.70;;;12.30;81.40;;;;;;4938515;28;20027;-67
2022/07/28 03:58:34;;;;;;;2.75;1.15;;;12.30;82.10;;;;;;4939861;29;20020;-67
2022/07/28 04:01:00;;;;;;;2.95;1.08;;;12.30;83.00;;;;;;4935625;29;20103;-67
2022/07/28 04:03:25;;;;;;;4.43;1.30;;;12.30;83.80;;;;;;4935654;29;20035;-67
2022/07/28 04:05:54;;;;;;;1.42;1.08;;;12.40;84.20;;;;;;4941640;28;20035;-67
2022/07/28 04:08:20;;;;;;;4.30;1.40;;;12.40;84.50;;;;;;4944392;28;20719;-67
2022/07/28 04:10:45;;;;;;;3.10;1.42;;;12.50;84.70;;;;;;4944731;29;20034;-67
2022/07/28 04:13:11;;;;;;;5.85;1.42;;;12.50;85.00;;;;;;4941501;28;20036;-67
2022/07/28 04:15:38;;;;;;;3.03;1.20;;;12.60;85.10;;;;;;4939060;29;20093;-67
2022/07/28 04:18:04;;;;;;;1.17;0.93;;;12.60;85.10;;;;;;4936254;28;20186;-67
2022/07/28 04:20:30;;;;;;;4.85;1.25;;;12.70;85.20;;;;;;4937787;29;20502;-67
2022/07/28 04:22:56;;;;;;;3.20;1.25;;;12.70;85.20;;;;;;4934237;28;20040;-68
2022/07/28 04:25:26;;;;;;;2.03;1.13;;;12.80;85.20;;;;;;4941341;29;20190;-67
2022/07/28 04:27:53;;;;;;;5.68;1.40;;;12.80;85.00;;;;;;4942233;28;20599;-67
2022/07/28 04:30:23;;;;;;;2.88;1.40;;;12.80;85.00;;;;;;4941748;28;20062;-67
2022/07/28 04:32:51;;;;;;;3.67;1.48;;;12.90;85.00;;;;;;4938011;29;20047;-67
2022/07/28 04:35:18;;;;;;;3.88;1.30;;;12.90;84.40;;;;;;4937996;29;20043;-67
2022/07/28 04:37:45;;;;;;;2.45;1.40;;;12.90;82.60;;;;;;4938104;28;20027;-68
2022/07/28 04:40:12;;;;;;;2.72;1.50;;;12.90;81.20;;;;;;4934290;28;20031;-67
2022/07/28 04:42:39;;;;;;;2.65;1.15;;;12.90;81.40;;;;;;4936144;28;20110;-67
2022/07/28 04:45:06;;;;;;;3.60;1.50;;;12.90;82.10;;;;;;4942524;29;20721;-67
2022/07/28 04:47:33;;;;;;;2.72;1.38;;;12.90;83.00;;;;;;4936128;29;20033;-67
2022/07/28 04:49:59;;;;;;;3.05;1.38;;;12.90;84.00;;;;;;4939756;28;20050;-67
2022/07/28 04:52:25;;;;;;;4.05;1.52;;;13.00;84.90;;;;;;4940671;29;20027;-67
2022/07/28 04:54:52;;;;;;;4.43;1.60;;;13.00;85.60;;;;;;4937171;28;20035;-67
2022/07/28 04:57:18;;;;;;;5.18;1.45;;;13.10;86.20;;;;;;4935589;29;20115;-67
2022/07/28 04:59:44;;;;;;;3.05;1.25;;;13.20;86.40;;;;;;4934916;29;20030;-67
2022/07/28 05:02:11;;;;;;;3.17;1.50;;;13.20;86.70;;;;;;4936215;29;20038;-67
2022/07/28 05:04:37;;;;;;;3.03;1.77;;;13.30;87.10;;;;;;4942302;28;20090;-67
2022/07/28 05:07:04;;;;;;;4.25;2.08;;;13.30;87.00;;;;;;4940062;28;20035;-67
2022/07/28 05:09:30;;;;;;;2.90;1.40;;;13.40;87.20;;;;;;4939850;29;20038;-68
2022/07/28 05:11:57;;;;;;;5.43;1.60;;;13.50;87.30;;;;;;4939286;28;20035;-67
2022/07/28 05:14:23;;;;;;;3.28;1.48;;;13.50;87.30;;;;;;4936676;29;20050;-67
2022/07/28 05:16:48;;;;;;;4.28;1.65;;;13.60;87.40;;;;;;4935136;29;20035;-67
2022/07/28 05:19:14;;;;;;;2.53;1.60;;;13.70;87.40;;;;;;4933181;29;20122;-67
2022/07/28 05:21:40;;;;;;;3.85;1.45;;;13.80;87.40;;;;;;4941768;28;20035;-67
2022/07/28 05:24:06;;;;;;;3.13;1.33;;;13.80;87.40;;;;;;4940151;29;20035;-67
2022/07/28 05:26:33;;;;;;;4.88;1.55;;;13.90;87.50;;;;;;4939680;28;20027;-67
2022/07/28 05:28:59;;;;;;;4.25;1.42;;;13.90;87.40;;;;;;4937404;28;20492;-67
2022/07/28 05:31:25;;;;;;;3.88;1.40;;;14.10;87.10;;;;;;4939436;28;20038;-67
2022/07/28 05:33:51;;;;;;;3.22;1.52;;;14.10;87.00;;;;;;4934368;29;20031;-67
2022/07/28 05:36:16;;;;;;;2.00;1.25;;;14.30;86.70;;;;;;4934041;29;20039;-67
2022/07/28 05:38:42;;;;;;;5.15;1.40;;;14.40;86.40;;;;;;4934503;28;20039;-67
2022/07/28 05:41:08;;;;;;;5.70;1.33;;;14.50;86.10;;;;;;4940976;28;20054;-68
2022/07/28 05:43:37;;;;;;;2.22;1.30;;;14.60;85.40;;;;;;4939890;29;20030;-67
2022/07/28 05:46:03;;;;;;;1.65;1.27;;;14.70;85.00;;;;;;4938588;28;20043;-67
2022/07/28 05:48:29;;;;;;;3.83;1.38;;;14.90;84.60;;;;;;4938004;29;20024;-68
2022/07/28 05:50:55;;;;;;;3.72;1.20;;;14.90;84.30;;;;;;4935920;28;20031;-67
2022/07/28 05:53:21;;;;;;;3.03;1.40;;;15.00;84.10;;;;;;4936016;28;20047;-67
2022/07/28 05:55:47;;;;;;;5.05;1.40;;;15.10;83.20;;;;;;4937492;28;20042;-68
2022/07/28 05:58:13;;;;;;;1.30;1.00;;;15.20;81.70;;;;;;4939689;29;20043;-67
2022/07/28 06:00:38;;;;;;;2.70;1.17;;;15.40;81.10;;;;;;4944882;28;20039;-67
2022/07/28 06:03:04;;;;;;;6.82;1.40;;;15.50;79.40;;;;;;4942272;29;20024;-67
2022/07/28 06:05:31;;;;;;;3.28;1.50;;;15.60;79.00;;;;;;4940962;29;20177;-68
2022/07/28 06:07:57;;;;;;;4.85;1.40;;;15.80;78.20;;;;;;4941710;29;20027;-67
2022/07/28 06:10:26;;;;;;;2.53;1.00;;;15.90;76.80;;;;;;4939649;29;20503;-67
2022/07/28 06:12:54;;;;;;;3.88;1.40;;;16.00;75.90;;;;;;4942767;29;20066;-68
2022/07/28 06:15:25;;;;;;;2.65;1.20;;;16.10;75.40;;;;;;4937456;29;20110;-68
2022/07/28 06:17:52;;;;;;;10.32;1.30;;;16.30;75.40;;;;;;4942140;28;20443;-67
2022/07/28 06:20:19;;;;;;;2.72;1.00;;;16.40;74.80;;;;;;4944840;28;20910;-68
2022/07/28 06:22:50;;;;;;;4.53;0.98;;;16.60;74.40;;;;;;4946330;28;20030;-67
2022/07/28 06:25:20;;;;;;;3.45;1.30;;;16.70;73.20;;;;;;4943723;28;20032;-67
2022/07/28 06:27:51;;;;;;;5.30;1.13;;;16.90;72.10;;;;;;4942880;29;20592;-68
2022/07/28 06:30:18;;;;;;;2.58;1.00;;;17.10;70.20;;;;;;4940516;28;20122;-67
2022/07/28 06:32:44;;;;;;;5.70;1.58;;;17.20;70.30;;;;;;4938031;29;20035;-68
2022/07/28 06:35:13;;;;;;;6.30;1.73;;;17.30;70.30;;;;;;4935525;29;20044;-67
2022/07/28 06:37:39;;;;;;;6.03;1.35;;;17.50;69.50;;;;;;4943998;28;20050;-67
2022/07/28 06:40:06;;;;;;;6.20;1.00;;;17.60;68.40;;;;;;4941874;28;20562;-68
2022/07/28 06:42:33;;;;;;;2.83;1.20;;;17.70;68.20;;;;;;4942108;28;20498;-68
2022/07/28 06:44:58;;;;;;;3.25;1.10;;;17.80;68.40;;;;;;4939970;28;20081;-68
2022/07/28 06:47:24;;;;;;;2.17;0.90;;;17.90;68.30;;;;;;4939302;29;20107;-68
2022/07/28 06:49:50;;;;;;;4.55;1.30;;;17.90;67.10;;;;;;4938021;29;20655;-67
2022/07/28 06:52:19;;;;;;;4.65;1.20;;;18.00;67.20;;;;;;4936496;29;20043;-66
2022/07/28 06:54:46;;;;;;;6.20;1.80;;;18.00;66.10;;;;;;4938359;28;20129;-68
2022/07/28 06:57:12;;;;;;;2.47;0.90;;;18.10;65.40;;;;;;4944484;28;20041;-67
2022/07/28 06:59:38;;;;;;;3.83;0.90;;;18.20;66.10;;;;;;4943880;28;20411;-67
2022/07/28 07:02:05;;;;;;;6.00;1.88;;;18.30;65.30;;;;;;4941049;29;20118;-68
2022/07/28 07:04:30;;;;;;;9.23;1.48;;;18.30;63.60;;;;;;4944365;28;20559;-68
2022/07/28 07:06:56;;;;;;;5.85;1.35;;;18.30;63.80;;;;;;4942879;29;20119;-68
2022/07/28 07:09:22;;;;;;;4.40;1.08;;;18.30;63.70;;;;;;4938686;29;20123;-68
2022/07/28 07:11:48;;;;;;;2.42;1.02;;;18.30;63.30;;;;;;4937098;28;20083;-68
2022/07/28 07:14:13;;;;;;;1.90;0.95;;;18.30;63.30;;;;;;4942747;29;20038;-68
2022/07/28 07:16:39;;;;;;;2.42;0.90;;;18.50;63.80;;;;;;4944389;28;20039;-68
2022/07/28 07:19:05;;;;;;;6.57;1.38;;;18.60;63.60;;;;;;4941916;28;20041;-68
2022/07/28 07:21:31;;;;;;;3.03;1.00;;;18.70;62.40;;;;;;4941260;29;20559;-67
2022/07/28 07:23:57;;;;;;;4.95;1.27;;;18.80;62.30;;;;;;4940073;28;20039;-68
2022/07/28 07:26:23;;;;;;;4.03;1.00;;;18.90;62.10;;;;;;4938927;29;20039;-68
2022/07/28 07:28:49;;;;;;;3.03;1.15;;;19.00;61.90;;;;;;4937918;28;20023;-67
2022/07/28 07:31:15;;;;;;;2.58;0.95;;;19.10;60.00;;;;;;4938764;28;20035;-67
2022/07/28 07:33:41;;;;;;;5.10;0.82;;;19.20;60.50;;;;;;4944083;29;20027;-67
2022/07/28 07:36:07;;;;;;;5.50;1.17;;;19.30;60.10;;;;;;4941330;29;20758;-68
2022/07/28 07:38:32;;;;;;;2.60;1.08;;;19.30;59.40;;;;;;4942478;29;20190;-68
2022/07/28 07:40:59;;;;;;;2.95;0.90;;;19.50;59.90;;;;;;4940635;29;20097;-68
2022/07/28 07:43:25;;;;;;;3.53;0.95;;;19.60;60.00;;;;;;4939384;29;21459;-68
2022/07/28 07:45:51;;;;;;;6.55;1.38;;;19.70;60.00;;;;;;4938493;29;20023;-68
2022/07/28 07:48:17;;;;;;;1.45;0.70;;;19.70;59.30;;;;;;4936504;29;20532;-68
2022/07/28 07:50:43;;;;;;;3.83;0.82;;;19.70;58.60;;;;;;4937034;28;20089;-68
2022/07/28 07:53:09;;;;;;;6.43;1.13;;;19.80;58.90;;;;;;4942772;29;20039;-67
2022/07/28 07:55:35;;;;;;;3.45;1.27;;;19.80;59.50;;;;;;4942911;28;20891;-68
2022/07/28 07:58:02;;;;;;;4.05;0.95;;;19.90;59.40;;;;;;4941004;29;20063;-68
2022/07/28 08:00:27;;;;;;;2.42;1.10;;;19.90;59.10;;;;;;4939630;29;20027;-68
2022/07/28 08:02:53;;;;;;;7.55;1.10;;;19.90;58.90;;;;;;4940868;28;20039;-68
2022/07/28 08:05:19;;;;;;;3.92;0.90;;;20.00;58.60;;;;;;4936850;29;20046;-68
2022/07/28 08:07:45;;;;;;;2.53;1.10;;;20.10;57.80;;;;;;4936695;28;20038;-68
2022/07/28 08:10:11;;;;;;;7.72;1.02;;;20.10;58.10;;;;;;4937593;28;20492;-68
2022/07/28 08:12:36;;;;;;;6.78;1.10;;;20.10;58.50;;;;;;4942251;28;20058;-68
2022/07/28 08:15:05;;;;;;;2.83;0.85;;;20.10;57.60;;;;;;4942411;28;20042;-68
2022/07/28 08:17:30;;;;;;;4.90;0.90;;;20.20;58.20;;;;;;4940402;28;20835;-68
2022/07/28 08:19:56;;;;;;;5.30;1.45;;;20.20;58.50;;;;;;4939116;28;20031;-68
2022/07/28 08:22:23;;;;;;;4.97;1.05;;;20.20;58.10;;;;;;4936949;29;20477;-68
2022/07/28 08:24:48;;;;;;;3.35;1.08;;;20.30;58.10;;;;;;4935475;29;20033;-68
2022/07/28 08:27:14;;;;;;;6.22;1.10;;;20.40;57.90;;;;;;4934735;29;20035;-68
2022/07/28 08:29:40;;;;;;;4.10;1.00;;;20.50;57.80;;;;;;4939541;28;20507;-68
2022/07/28 08:32:06;;;;;;;5.15;1.20;;;20.50;57.30;;;;;;4941391;28;20431;-68
2022/07/28 08:34:33;;;;;;;4.50;1.35;;;20.50;57.00;;;;;;4942555;28;20563;-68
2022/07/28 08:37:01;;;;;;;4.50;0.90;;;20.50;56.60;;;;;;4942107;29;20039;-68
2022/07/28 08:39:27;;;;;;;3.15;1.08;;;20.60;57.20;;;;;;4941790;29;20094;-68
2022/07/28 08:42:03;;;;;;;2.88;1.13;;;20.60;57.40;;;;;;4942119;28;20515;-68
2022/07/28 08:44:53;;;;;;;6.22;1.10;;;20.70;57.60;;;;;;4937340;29;20800;-68
2022/07/28 08:47:20;;;;;;;3.08;0.88;;;20.90;57.20;;;;;;4934565;29;20027;-68
2022/07/28 08:49:47;;;;;;;4.10;1.30;;;20.90;56.90;;;;;;4942758;28;20034;-68
2022/07/28 08:52:14;;;;;;;2.58;0.90;;;21.00;56.80;;;;;;4939744;28;20043;-68
2022/07/28 08:54:45;;;;;;;3.85;1.25;;;21.00;57.10;;;;;;4940452;28;20033;-68
2022/07/28 08:57:24;;;;;;;1.73;0.80;;;21.10;57.20;;;;;;4937335;29;20046;-68
2022/07/28 08:59:51;;;;;;;5.03;1.08;;;21.10;55.00;;;;;;4937406;29;20086;-67
2022/07/28 09:02:18;;;;;;;4.72;1.08;;;21.10;53.30;;;;;;4934574;29;20147;-68
2022/07/28 09:04:45;;;;;;;5.03;1.05;;;21.00;54.10;;;;;;4936030;28;20023;-68
2022/07/28 09:07:11;;;;;;;3.95;1.00;;;21.00;55.20;;;;;;4938855;29;20091;-68
2022/07/28 09:09:38;;;;;;;3.85;1.10;;;21.00;54.70;;;;;;4941989;28;20027;-68
2022/07/28 09:12:05;;;;;;;6.25;1.00;;;21.00;54.80;;;;;;4940091;28;20089;-68
2022/07/28 09:14:32;;;;;;;3.42;0.90;;;21.10;55.20;;;;;;4940192;29;20125;-68
2022/07/28 09:17:01;;;;;;;6.22;1.05;;;21.10;55.40;;;;;;4937442;28;20162;-68
2022/07/28 09:19:28;;;;;;;4.35;1.10;;;21.10;55.30;;;;;;4937270;29;20832;-68
2022/07/28 09:21:58;;;;;;;2.75;1.15;;;21.10;55.90;;;;;;4934355;28;20035;-68
2022/07/28 09:24:39;;;;;;;4.93;1.17;;;21.10;55.30;;;;;;4934335;29;20067;-68
2022/07/28 09:27:14;;;;;;;5.68;1.20;;;21.10;55.60;;;;;;4939719;28;20543;-68
2022/07/28 09:29:48;;;;;;;3.67;1.00;;;21.10;55.80;;;;;;4940208;29;20634;-68
2022/07/28 09:32:19;;;;;;;2.97;1.00;;;21.10;55.80;;;;;;4942065;28;20035;-68
2022/07/28 09:34:47;;;;;;;2.50;0.90;;;21.10;56.20;;;;;;4943028;28;20047;-68
2022/07/28 09:37:25;;;;;;;3.85;1.15;;;21.10;56.20;;;;;;4939705;29;20050;-68
2022/07/28 09:39:53;;;;;;;5.60;0.98;;;21.20;56.30;;;;;;4939770;29;20039;-68
2022/07/28 09:42:20;;;;;;;4.22;0.88;;;21.20;55.60;;;;;;4937384;29;20079;-68
2022/07/28 09:45:05;;;;;;;7.85;1.40;;;21.30;56.10;;;;;;4942244;28;20058;-68
2022/07/28 09:47:31;;;;;;;2.67;0.80;;;21.40;55.60;;;;;;4945213;28;20403;-68
2022/07/28 09:49:58;;;;;;;3.83;0.82;;;21.50;53.80;;;;;;4943597;28;20083;-68
2022/07/28 09:52:35;;;;;;;3.00;1.00;;;21.60;53.80;;;;;;4941228;29;20035;-68
2022/07/28 09:55:10;;;;;;;4.63;0.93;;;21.70;53.30;;;;;;4940063;29;20189;-68
2022/07/28 09:57:38;;;;;;;2.50;0.80;;;21.80;53.20;;;;;;4940776;28;20047;-68
2022/07/28 10:00:09;;;;;;;4.13;1.23;;;21.80;51.60;;;;;;4936577;28;20122;-68
2022/07/28 10:02:38;;;;;;;3.03;1.05;;;21.80;51.50;;;;;;4938141;29;20558;-68
2022/07/28 10:05:05;;;;;;;3.28;0.88;;;21.90;52.40;;;;;;4944923;29;20102;-67
2022/07/28 10:07:31;;;;;;;3.65;1.10;;;22.00;51.30;;;;;;4943873;29;20026;-68
2022/07/28 10:09:59;;;;;;;4.82;1.08;;;22.00;51.70;;;;;;4942876;28;20035;-68
2022/07/28 10:12:29;;;;;;;2.53;0.82;;;21.90;51.50;;;;;;4940104;29;20039;-68
2022/07/28 10:14:58;;;;;;;2.42;0.90;;;21.90;51.60;;;;;;4939937;29;20395;-68
2022/07/28 10:17:32;;;;;;;2.58;0.98;;;22.00;51.90;;;;;;4938887;29;20107;-68
2022/07/28 10:19:59;;;;;;;5.07;0.85;;;22.00;51.70;;;;;;4935778;28;20110;-68
2022/07/28 10:22:32;;;;;;;7.05;1.15;;;22.00;52.10;;;;;;4939986;29;21256;-68
2022/07/28 10:25:01;;;;;;;3.72;1.10;;;22.10;51.70;;;;;;4941070;29;20043;-68
2022/07/28 10:27:27;;;;;;;4.22;1.13;;;22.10;51.20;;;;;;4957342;28;20500;-68
2022/07/28 10:29:57;;;;;;;3.72;1.30;;;22.10;51.20;;;;;;4941882;28;20032;-68
2022/07/28 10:32:24;;;;;;;4.93;1.33;;;22.20;51.00;;;;;;4940189;28;20531;-68
2022/07/28 10:35:03;;;;;;;4.35;0.80;;;22.20;50.80;;;;;;4939903;28;20081;-68
2022/07/28 10:37:30;;;;;;;5.50;0.90;;;22.30;51.00;;;;;;4939455;29;20042;-68
2022/07/28 10:40:08;;;;;;;5.50;1.10;;;22.30;50.60;;;;;;4934772;28;20031;-69
2022/07/28 10:42:35;;;;;;;7.00;1.30;;;22.60;50.50;;;;;;4941685;29;20039;-69
2022/07/28 10:45:02;;;;;;;2.28;0.98;;;22.90;49.50;;;;;;4943805;29;20062;-69
2022/07/28 10:47:28;;;;;;;6.00;1.10;;;23.10;49.30;;;;;;4943229;29;20096;-71
2022/07/28 10:49:55;;;;;;;4.10;0.98;;;23.00;48.90;;;;;;4942801;29;20031;-71
2022/07/28 10:52:22;;;;;;;6.10;1.10;;;22.90;48.40;;;;;;4941256;29;20040;-71
2022/07/28 10:54:53;;;;;;;2.75;0.70;;;22.70;49.20;;;;;;4941128;28;20709;-71
2022/07/28 10:57:19;;;;;;;3.05;0.95;;;22.60;49.00;;;;;;4936753;29;20068;-71
2022/07/28 11:00:16;;;;;;;4.25;1.05;;;22.60;49.80;;;;;;4937232;29;20043;-72
2022/07/28 11:02:52;;;;;;;3.78;1.10;;;22.70;49.90;;;;;;4942699;28;20063;-71
2022/07/28 11:05:23;;;;;;;;;;;22.80;49.60;;;;;;4941759;28;20035;-71
2022/07/28 11:07:49;;;;;;;6.18;1.02;;;23.00;48.90;;;;;;4941297;28;19957;-71
2022/07/28 11:10:17;;;;;;;4.53;1.08;;;23.20;48.70;;;;;;4937943;28;20441;-71
2022/07/28 11:12:47;;;;;;;4.78;0.90;;;23.50;48.10;;;;;;4937261;29;20122;-71
2022/07/28 11:15:31;;;;;;;5.38;1.02;;;23.60;47.30;;;;;;4940327;29;20066;-71
2022/07/28 11:18:08;;;;;;;8.40;1.17;;;23.50;47.50;;;;;;4934650;29;20559;-71
2022/07/28 11:20:55;;;;;;;4.65;1.00;;;23.50;48.00;;;;;;4944509;29;20035;-71
2022/07/28 11:23:39;;;;;;;3.92;0.95;;;23.50;47.50;;;;;;4942074;29;20098;-71
2022/07/28 11:26:23;;;;;;;6.15;1.30;;;23.50;47.40;;;;;;4940340;29;20035;-71
2022/07/28 11:29:07;;;;;;;2.95;0.85;;;23.50;47.60;;;;;;4938153;29;20031;-71
2022/07/28 11:31:45;;;;;;;3.03;0.90;;;23.50;46.80;;;;;;4942819;28;20114;-71
2022/07/28 11:34:15;;;;;;;5.13;0.93;;;23.60;46.30;;;;;;4936471;29;20032;-71
2022/07/28 11:37:08;;;;;;;3.05;0.80;;;23.60;45.80;;;;;;4937518;28;20062;-71
2022/07/28 11:39:39;;;;;;;3.13;1.30;;;23.50;46.80;;;;;;4941201;29;20039;-71
2022/07/28 11:42:25;;;;;;;6.38;1.20;;;23.40;46.60;;;;;;4941735;28;20472;-71
2022/07/28 11:44:51;;;;;;;5.30;1.00;;;23.40;46.00;;;;;;4939751;29;20031;-71
2022/07/28 11:47:27;;;;;;;3.13;0.70;;;23.40;46.20;;;;;;4939298;29;20527;-71
2022/07/28 11:50:23;;;;;;;2.65;0.90;;;23.50;46.40;;;;;;4938263;28;20039;-71
2022/07/28 11:52:53;;;;;;;3.38;0.80;;;23.60;46.40;;;;;;4925694;29;20039;-71
2022/07/28 11:55:20;;;;;;;19.90;1.00;;;23.60;47.50;;;;;;4935700;29;20063;-71
2022/07/28 11:57:46;;;;;;;4.70;0.80;;;23.70;46.10;;;;;;4944274;28;20047;-71
2022/07/28 12:00:22;;;;;;;6.07;0.75;;;23.70;45.90;;;;;;4942113;28;20778;-71
2022/07/28 12:02:48;;;;;;;4.40;0.80;;;23.70;46.60;;;;;;4938248;29;20077;-71
2022/07/28 12:05:16;;;;;;;2.95;0.80;;;23.80;46.60;;;;;;4942807;29;20071;-72
2022/07/28 12:07:51;;;;;;;6.10;0.90;;;23.70;45.80;;;;;;4940129;28;20048;-71
2022/07/28 12:10:26;;;;;;;3.13;1.08;;;23.80;45.60;;;;;;4937310;29;20074;-71
2022/07/28 12:12:58;;;;;;;5.63;1.13;;;23.80;46.40;;;;;;4935336;28;20050;-71
2022/07/28 12:15:24;;;;;;;5.72;0.90;;;23.90;45.40;;;;;;4939424;29;20048;-71
2022/07/28 12:17:50;;;;;;;6.38;0.90;;;23.90;45.70;;;;;;4943074;28;20035;-69
2022/07/28 12:20:17;;;;;;;2.78;0.70;;;24.00;46.20;;;;;;4941190;29;20043;-71
2022/07/28 12:23:09;;;;;;;3.88;0.93;;;24.00;46.20;;;;;;4940637;28;20130;-71
2022/07/28 12:25:45;;;;;;;4.03;0.82;;;24.10;45.70;;;;;;4937840;29;20035;-71
2022/07/28 12:28:16;;;;;;;4.10;1.00;;;24.20;44.80;;;;;;4936268;29;20024;-69
2022/07/28 12:30:42;;;;;;;6.35;0.90;;;24.30;44.50;;;;;;4937585;28;20035;-71
2022/07/28 12:33:20;;;;;;;1.90;1.05;;;24.20;44.60;;;;;;4933009;29;20066;-71
2022/07/28 12:35:50;;;;;;;2.38;0.90;;;24.10;44.20;;;;;;4942944;28;20040;-71
2022/07/28 12:38:16;;;;;;;2.25;0.82;;;24.20;42.80;;;;;;4941229;28;20027;-71
2022/07/28 12:40:43;;;;;;;5.47;0.98;;;24.10;41.90;;;;;;4940692;29;20094;-71
2022/07/28 12:43:08;;;;;;;4.88;0.90;;;24.00;43.40;;;;;;4938055;28;20715;-71
2022/07/28 12:45:44;;;;;;;0.85;0.52;;;24.00;43.50;;;;;;4938970;28;20027;-71
2022/07/28 12:48:10;;;;;;;;;;;23.90;42.60;;;;;;4935688;29;20023;-71
2022/07/28 12:50:37;;;;;;;3.33;0.70;;;23.80;43.50;;;;;;4936001;28;19921;-71
2022/07/28 12:53:08;;;;;;;4.75;1.00;;;23.80;44.70;;;;;;4935945;29;20062;-71
2022/07/28 12:55:35;;;;;;;9.45;1.30;;;23.90;45.10;;;;;;4935577;29;20023;-71
2022/07/28 12:58:02;;;;;;;3.97;1.10;;;24.00;45.20;;;;;;4941081;28;20038;-71
2022/07/28 13:00:30;;;;;;;2.70;0.90;;;24.10;46.20;;;;;;4938770;29;20035;-71